createdAt,value
2019-03-11T00:00:53.188Z,10.83
2019-03-11T00:03:23.443Z,10.94
2019-03-11T00:05:53.257Z,11.01
2019-03-11T00:08:23.025Z,10.92
2019-03-11T00:10:52.871Z,11.06
2019-03-11T00:13:22.651Z,10.91
2019-03-11T00:15:52.390Z,10.77
2019-03-11T00:18:22.251Z,10.75
2019-03-11T00:20:51.995Z,10.81
2019-03-11T00:23:21.766Z,10.89
2019-03-11T00:25:51.646Z,10.88
2019-03-11T00:28:21.448Z,10.75
2019-03-11T00:30:51.188Z,10.68
2019-03-11T00:33:23.648Z,10.74
2019-03-11T00:35:56.961Z,10.74
2019-03-11T00:38:26.869Z,10.88
2019-03-11T00:40:56.743Z,10.74
2019-03-11T00:43:26.568Z,10.68
2019-03-11T00:45:56.293Z,10.70
2019-03-11T00:48:26.066Z,10.68
2019-03-11T00:50:55.889Z,10.94
2019-03-11T00:53:27.750Z,10.85
2019-03-11T00:55:57.510Z,10.89
2019-03-11T00:58:29.237Z,10.98
2019-03-11T01:00:59.387Z,10.93
2019-03-11T01:03:29.331Z,10.98
2019-03-11T01:06:01.656Z,10.99
2019-03-11T01:08:31.499Z,11.00
2019-03-11T01:11:02.229Z,11.00
2019-03-11T01:13:32.155Z,10.95
2019-03-11T01:16:01.967Z,11.03
2019-03-11T01:18:31.772Z,10.96
2019-03-11T01:21:01.568Z,10.88
2019-03-11T01:23:31.348Z,10.89
2019-03-11T01:26:01.129Z,10.84
2019-03-11T01:28:30.958Z,10.75
2019-03-11T01:31:01.563Z,10.65
2019-03-11T01:33:33.344Z,10.74
2019-03-11T01:36:04.738Z,10.79
2019-03-11T01:38:34.604Z,10.63
2019-03-11T01:41:04.430Z,10.47
2019-03-11T01:43:34.268Z,10.56
2019-03-11T01:46:04.026Z,11.27
2019-03-11T01:48:33.792Z,11.48
2019-03-11T01:51:03.524Z,11.22
2019-03-11T01:53:33.289Z,11.05
2019-03-11T01:56:03.063Z,11.19
2019-03-11T01:58:32.866Z,11.19
2019-03-11T02:01:02.676Z,11.17
2019-03-11T02:03:32.438Z,11.20
2019-03-11T02:06:02.234Z,10.59
2019-03-11T02:08:31.910Z,10.97
2019-03-11T02:11:01.610Z,10.88
2019-03-11T02:13:31.428Z,10.81
2019-03-11T02:16:01.229Z,10.89
2019-03-11T02:18:31.026Z,10.79
2019-03-11T02:21:01.136Z,10.60
2019-03-11T02:23:30.943Z,10.57
2019-03-11T02:26:00.854Z,10.54
2019-03-11T02:28:30.631Z,10.44
2019-03-11T02:31:00.460Z,10.20
2019-03-11T02:33:31.271Z,10.03
2019-03-11T02:36:01.025Z,10.06
2019-03-11T02:38:30.828Z,10.05
2019-03-11T02:41:00.625Z,10.01
2019-03-11T02:43:30.376Z,9.89
2019-03-11T02:46:00.209Z,9.86
2019-03-11T02:48:29.982Z,9.76
2019-03-11T02:50:59.786Z,9.66
2019-03-11T02:53:31.215Z,9.58
2019-03-11T02:56:01.028Z,9.56
2019-03-11T02:58:31.744Z,9.66
2019-03-11T03:01:18.153Z,9.55
2019-03-11T03:03:58.514Z,9.52
2019-03-11T03:06:29.207Z,9.54
2019-03-11T03:08:59.010Z,9.57
2019-03-11T03:11:29.258Z,9.55
2019-03-11T03:13:59.031Z,9.55
2019-03-11T03:16:28.807Z,9.53
2019-03-11T03:18:58.603Z,9.58
2019-03-11T03:21:28.298Z,9.61
2019-03-11T03:23:58.057Z,9.50
2019-03-11T03:26:27.884Z,9.41
2019-03-11T03:28:57.710Z,9.29
2019-03-11T03:31:27.475Z,9.20
2019-03-11T03:34:00.605Z,9.16
2019-03-11T03:36:30.375Z,9.18
2019-03-11T03:39:00.155Z,9.13
2019-03-11T03:41:29.952Z,9.04
2019-03-11T03:43:59.689Z,9.19
2019-03-11T03:46:29.674Z,9.24
2019-03-11T03:49:00.054Z,9.21
2019-03-11T03:51:29.992Z,9.26
2019-03-11T03:53:59.829Z,9.15
2019-03-11T03:56:30.582Z,8.96
2019-03-11T03:59:03.264Z,8.98
2019-03-11T04:01:33.008Z,8.91
2019-03-11T04:04:02.842Z,8.92
2019-03-11T04:06:32.677Z,8.93
2019-03-11T04:09:02.499Z,9.07
2019-03-11T04:11:32.252Z,8.85
2019-03-11T04:14:02.094Z,8.88
2019-03-11T04:16:31.974Z,8.74
2019-03-11T04:19:01.805Z,8.58
2019-03-11T04:21:32.682Z,8.81
2019-03-11T04:24:02.489Z,8.72
2019-03-11T04:26:32.262Z,8.54
2019-03-11T04:29:02.032Z,8.67
2019-03-11T04:31:31.884Z,8.71
2019-03-11T04:34:01.717Z,8.63
2019-03-11T04:36:31.485Z,8.53
2019-03-11T04:39:01.449Z,8.51
2019-03-11T04:41:31.195Z,8.37
2019-03-11T04:44:00.976Z,8.40
2019-03-11T04:46:30.768Z,8.35
2019-03-11T04:49:02.981Z,8.17
2019-03-11T04:51:33.711Z,8.01
2019-03-11T04:54:03.458Z,7.89
2019-03-11T04:56:33.203Z,7.84
2019-03-11T04:59:15.052Z,7.79
2019-03-11T05:01:44.833Z,7.76
2019-03-11T05:04:15.026Z,8.00
2019-03-11T05:06:44.942Z,8.08
2019-03-11T05:09:17.503Z,7.85
2019-03-11T05:11:48.947Z,8.13
2019-03-11T05:14:19.126Z,8.11
2019-03-11T05:16:50.680Z,8.08
2019-03-11T05:19:21.770Z,7.96
2019-03-11T05:21:52.696Z,7.89
2019-03-11T05:24:22.897Z,7.71
2019-03-11T05:26:52.764Z,7.60
2019-03-11T05:29:23.023Z,7.53
2019-03-11T05:31:55.234Z,7.48
2019-03-11T05:34:25.556Z,7.49
2019-03-11T05:36:55.328Z,7.51
2019-03-11T05:39:25.531Z,7.58
2019-03-11T05:41:55.339Z,7.84
2019-03-11T05:44:26.506Z,8.03
2019-03-11T05:46:57.878Z,8.03
2019-03-11T05:49:29.095Z,8.00
2019-03-11T05:51:58.975Z,8.02
2019-03-11T05:54:29.721Z,8.18
2019-03-11T05:57:01.138Z,8.44
2019-03-11T05:59:31.294Z,8.61
2019-03-11T06:02:01.603Z,8.97
2019-03-11T06:04:31.429Z,8.99
2019-03-11T06:07:01.206Z,8.98
2019-03-11T06:09:31.343Z,9.10
2019-03-11T06:12:01.491Z,9.06
2019-03-11T06:14:31.265Z,9.14
2019-03-11T06:17:01.028Z,8.88
2019-03-11T06:19:31.299Z,8.91
2019-03-11T06:22:03.143Z,8.76
2019-03-11T06:24:32.895Z,8.84
2019-03-11T06:27:03.048Z,8.62
2019-03-11T06:29:32.734Z,8.50
2019-03-11T06:32:02.577Z,8.40
2019-03-11T06:34:32.894Z,8.28
2019-03-11T06:37:02.673Z,8.25
2019-03-11T06:39:32.426Z,8.15
2019-03-11T06:42:02.885Z,8.26
2019-03-11T06:44:32.932Z,8.25
2019-03-11T06:47:03.013Z,8.22
2019-03-11T06:49:32.784Z,8.26
2019-03-11T06:52:03.720Z,8.32
2019-03-11T06:54:33.510Z,8.34
2019-03-11T06:57:03.269Z,8.34
2019-03-11T06:59:33.109Z,8.44
2019-03-11T07:02:04.481Z,8.52
2019-03-11T07:04:36.774Z,8.41
2019-03-11T07:07:06.553Z,8.55
2019-03-11T07:09:36.359Z,8.54
2019-03-11T07:12:06.212Z,8.79
2019-03-11T07:14:36.290Z,9.00
2019-03-11T07:17:06.434Z,9.29
2019-03-11T07:19:37.716Z,9.35
2019-03-11T07:22:07.561Z,9.51
2019-03-11T07:24:38.908Z,9.66
2019-03-11T07:27:09.962Z,9.91
2019-03-11T07:29:39.528Z,10.12
2019-03-11T07:32:09.449Z,10.20
2019-03-11T07:34:39.408Z,10.39
2019-03-11T07:37:09.573Z,10.62
2019-03-11T07:39:40.859Z,10.66
2019-03-11T07:42:11.440Z,10.18
2019-03-11T07:44:41.094Z,10.34
2019-03-11T07:47:11.893Z,10.21
2019-03-11T07:49:42.277Z,10.26
2019-03-11T07:52:13.269Z,10.51
2019-03-11T07:54:46.733Z,10.89
2019-03-11T07:57:16.928Z,11.11
2019-03-11T07:59:48.394Z,11.28
2019-03-11T08:02:18.695Z,11.35
2019-03-11T08:04:49.812Z,11.46
2019-03-11T08:07:20.430Z,11.81
2019-03-11T08:09:51.294Z,12.10
2019-03-11T08:12:20.947Z,12.13
2019-03-11T08:14:51.618Z,12.35
2019-03-11T08:17:23.067Z,12.17
2019-03-11T08:19:53.519Z,12.47
2019-03-11T08:22:23.387Z,12.87
2019-03-11T08:24:53.204Z,12.62
2019-03-11T08:27:22.990Z,12.79
2019-03-11T08:29:53.042Z,13.10
2019-03-11T08:32:24.374Z,13.41
2019-03-11T08:34:56.427Z,13.78
2019-03-11T08:37:28.068Z,14.00
2019-03-11T08:39:58.261Z,14.11
2019-03-11T08:42:29.098Z,14.35
2019-03-11T08:44:59.074Z,14.22
2019-03-11T08:47:30.633Z,13.98
2019-03-11T08:50:02.949Z,13.59
2019-03-11T08:52:34.414Z,13.64
2019-03-11T08:55:06.163Z,13.79
2019-03-11T08:57:40.035Z,13.68
2019-03-11T09:00:16.526Z,12.38
2019-03-11T09:02:47.260Z,13.69
2019-03-11T09:05:17.078Z,13.58
2019-03-11T09:07:46.846Z,13.19
2019-03-11T09:10:19.374Z,13.52
2019-03-11T09:12:49.171Z,13.60
2019-03-11T09:15:22.982Z,13.16
2019-03-11T09:17:52.817Z,12.80
2019-03-11T09:20:23.512Z,12.71
2019-03-11T09:22:53.450Z,12.82
2019-03-11T09:25:25.183Z,12.45
2019-03-11T09:27:54.984Z,12.36
2019-03-11T09:30:25.014Z,12.87
2019-03-11T09:32:54.702Z,13.60
2019-03-11T09:35:26.901Z,13.86
2019-03-11T09:37:56.633Z,14.10
2019-03-11T09:40:26.618Z,14.18
2019-03-11T09:42:56.636Z,14.08
2019-03-11T09:45:26.269Z,14.29
2019-03-11T09:47:56.234Z,14.53
2019-03-11T09:50:26.038Z,14.64
2019-03-11T09:52:55.870Z,14.65
2019-03-11T09:55:31.813Z,14.11
2019-03-11T09:58:04.675Z,13.94
2019-03-11T10:00:35.647Z,13.99
2019-03-11T10:03:05.635Z,14.07
2019-03-11T10:05:36.989Z,13.79
2019-03-11T10:08:07.447Z,13.70
2019-03-11T10:10:38.223Z,13.73
2019-03-11T10:13:09.504Z,13.73
2019-03-11T10:15:39.499Z,13.39
2019-03-11T10:18:10.236Z,13.50
2019-03-11T10:20:40.241Z,13.34
2019-03-11T10:23:11.378Z,13.78
2019-03-11T10:25:41.566Z,14.20
2019-03-11T10:28:12.249Z,14.42
2019-03-11T10:30:44.622Z,14.58
2019-03-11T10:33:16.882Z,14.71
2019-03-11T10:35:48.461Z,14.63
2019-03-11T10:38:19.158Z,14.55
2019-03-11T10:40:51.035Z,14.47
2019-03-11T10:43:21.970Z,14.16
2019-03-11T10:45:52.213Z,13.73
2019-03-11T10:48:22.944Z,13.74
2019-03-11T10:50:54.556Z,13.61
2019-03-11T10:53:26.787Z,13.46
2019-03-11T10:55:57.187Z,13.44
2019-03-11T10:58:29.318Z,13.54
2019-03-11T11:00:59.770Z,13.75
2019-03-11T11:03:29.462Z,13.76
2019-03-11T11:06:00.299Z,13.79
2019-03-11T11:08:32.891Z,13.62
2019-03-11T11:11:03.209Z,13.76
2019-03-11T11:13:34.401Z,14.01
2019-03-11T11:16:04.906Z,14.10
2019-03-11T11:18:36.458Z,14.10
2019-03-11T11:21:06.352Z,14.18
2019-03-11T11:23:36.359Z,14.24
2019-03-11T11:26:07.105Z,14.35
2019-03-11T11:28:36.908Z,14.42
2019-03-11T11:31:06.762Z,14.14
2019-03-11T11:33:36.919Z,13.90
2019-03-11T11:36:06.727Z,14.10
2019-03-11T11:38:36.894Z,14.33
2019-03-11T11:41:07.732Z,14.45
2019-03-11T11:43:37.388Z,14.61
2019-03-11T11:46:07.222Z,14.82
2019-03-11T11:48:38.622Z,14.82
2019-03-11T11:51:08.326Z,14.93
2019-03-11T11:53:38.081Z,15.08
2019-03-11T11:56:08.447Z,15.24
2019-03-11T11:58:40.711Z,15.18
2019-03-11T12:01:09.761Z,15.16
2019-03-11T12:03:39.548Z,15.03
2019-03-11T12:06:09.365Z,14.95
2019-03-11T12:08:40.066Z,15.01
2019-03-11T12:11:09.899Z,15.00
2019-03-11T12:13:39.657Z,14.78
2019-03-11T12:16:09.532Z,14.80
2019-03-11T12:18:39.293Z,14.65
2019-03-11T12:21:12.206Z,14.36
2019-03-11T12:23:46.253Z,14.04
2019-03-11T12:26:13.844Z,13.50
2019-03-11T12:28:43.643Z,13.34
2019-03-11T12:31:13.390Z,13.15
2019-03-11T12:33:43.154Z,12.53
2019-03-11T12:36:13.862Z,11.99
2019-03-11T12:38:43.876Z,11.77
2019-03-11T12:41:13.522Z,11.33
2019-03-11T12:43:43.408Z,11.10
2019-03-11T12:46:13.141Z,10.93
2019-03-11T12:48:42.960Z,11.01
2019-03-11T12:51:12.727Z,11.06
2019-03-11T12:53:46.075Z,11.03
2019-03-11T12:56:15.919Z,10.92
2019-03-11T12:58:46.711Z,10.93
2019-03-11T13:01:16.445Z,10.79
2019-03-11T13:03:46.246Z,10.72
2019-03-11T13:06:16.048Z,9.39
2019-03-11T13:08:45.894Z,10.42
2019-03-11T13:11:15.777Z,10.16
2019-03-11T13:13:45.612Z,10.02
2019-03-11T13:16:15.373Z,9.91
2019-03-11T13:18:45.194Z,9.72
2019-03-11T13:21:20.548Z,9.57
2019-03-11T13:23:50.316Z,9.55
2019-03-11T13:26:20.149Z,9.53
2019-03-11T13:28:49.952Z,9.39
2019-03-11T13:31:19.736Z,9.46
2019-03-11T13:33:49.547Z,9.34
2019-03-11T13:36:20.084Z,9.25
2019-03-11T13:38:49.937Z,9.29
2019-03-11T13:41:19.746Z,9.17
2019-03-11T13:43:49.681Z,9.31
2019-03-11T13:46:19.627Z,9.31
2019-03-11T13:48:49.461Z,9.17
2019-03-11T13:51:19.240Z,9.22
2019-03-11T13:53:48.927Z,9.27
2019-03-11T13:56:19.121Z,9.23
2019-03-11T13:58:48.714Z,9.15
2019-03-11T14:01:21.153Z,9.12
2019-03-11T14:03:50.216Z,9.04
2019-03-11T14:06:20.026Z,8.89
2019-03-11T14:08:50.040Z,9.02
2019-03-11T14:11:19.683Z,9.05
2019-03-11T14:13:50.448Z,8.93
2019-03-11T14:16:20.246Z,8.81
2019-03-11T14:18:50.027Z,8.60
2019-03-11T14:21:25.690Z,8.63
2019-03-11T14:23:51.279Z,8.54
2019-03-11T14:26:21.077Z,8.77
2019-03-11T14:28:50.862Z,8.64
2019-03-11T14:31:20.671Z,8.64
2019-03-11T14:33:50.471Z,8.71
2019-03-11T14:36:20.402Z,8.59
2019-03-11T14:38:50.246Z,8.70
2019-03-11T14:41:20.024Z,8.67
2019-03-11T14:43:49.769Z,8.89
2019-03-11T14:46:19.588Z,8.82
2019-03-11T14:48:49.444Z,8.69
2019-03-11T14:51:19.220Z,8.50
2019-03-11T14:53:49.004Z,8.35
2019-03-11T14:56:18.813Z,8.51
2019-03-11T14:58:48.806Z,8.43
2019-03-11T15:01:18.392Z,8.37
2019-03-11T15:03:48.977Z,8.40
2019-03-11T15:06:18.901Z,8.60
2019-03-11T15:08:48.741Z,8.56
2019-03-11T15:11:20.393Z,8.39
2019-03-11T15:13:50.854Z,8.19
2019-03-11T15:16:20.690Z,8.02
2019-03-11T15:18:50.606Z,8.14
2019-03-11T15:21:21.166Z,8.40
2019-03-11T15:23:51.206Z,8.39
2019-03-11T15:26:25.129Z,8.07
2019-03-11T15:28:52.483Z,8.45
2019-03-11T15:31:22.289Z,8.33
2019-03-11T15:33:52.062Z,8.35
2019-03-11T15:36:32.908Z,8.34
2019-03-11T15:38:53.619Z,8.11
2019-03-11T15:41:23.596Z,7.96
2019-03-11T15:43:54.806Z,7.97
2019-03-11T15:46:24.866Z,8.00
2019-03-11T15:48:57.420Z,7.97
2019-03-11T15:51:36.174Z,7.99
2019-03-11T15:53:58.925Z,7.05
2019-03-11T15:56:28.716Z,7.93
2019-03-11T15:58:58.581Z,7.81
2019-03-11T16:01:28.570Z,8.07
2019-03-11T16:03:58.342Z,8.36
2019-03-11T16:06:28.215Z,8.13
2019-03-11T16:08:58.586Z,7.87
2019-03-11T16:11:28.477Z,7.83
2019-03-11T16:13:59.329Z,7.83
2019-03-11T16:16:29.138Z,7.74
2019-03-11T16:18:58.806Z,7.58
2019-03-11T16:21:28.420Z,7.43
2019-03-11T16:23:58.407Z,7.41
2019-03-11T16:26:28.208Z,7.12
2019-03-11T16:28:58.240Z,7.17
2019-03-11T16:31:28.060Z,7.20
2019-03-11T16:33:57.748Z,7.11
2019-03-11T16:36:28.253Z,7.21
2019-03-11T16:38:58.048Z,7.14
2019-03-11T16:41:27.920Z,7.03
2019-03-11T16:43:57.772Z,6.95
2019-03-11T16:46:27.754Z,6.94
2019-03-11T16:48:58.931Z,6.86
2019-03-11T16:51:30.413Z,7.03
2019-03-11T16:54:00.531Z,7.11
2019-03-11T16:56:30.765Z,7.18
2019-03-11T16:59:00.609Z,7.13
2019-03-11T17:01:30.631Z,6.89
2019-03-11T17:04:00.434Z,6.78
2019-03-11T17:06:30.403Z,6.89
2019-03-11T17:09:00.324Z,6.76
2019-03-11T17:11:30.157Z,7.62
2019-03-11T17:13:59.988Z,8.18
2019-03-11T17:16:29.989Z,7.69
2019-03-11T17:18:59.677Z,7.39
2019-03-11T17:21:29.686Z,7.23
2019-03-11T17:23:59.425Z,7.11
2019-03-11T17:26:29.273Z,6.85
2019-03-11T17:29:00.063Z,6.79
2019-03-11T17:31:29.811Z,6.70
2019-03-11T17:33:59.654Z,6.68
2019-03-11T17:36:30.410Z,6.66
2019-03-11T17:39:00.213Z,6.81
2019-03-11T17:41:30.047Z,6.73
2019-03-11T17:44:00.140Z,6.65
2019-03-11T17:46:29.973Z,6.60
2019-03-11T17:48:59.993Z,6.63
2019-03-11T17:51:30.012Z,6.71
2019-03-11T17:53:59.961Z,6.81
2019-03-11T17:56:29.870Z,6.95
2019-03-11T17:58:59.687Z,7.01
2019-03-11T18:01:29.485Z,6.82
2019-03-11T18:04:00.082Z,6.79
2019-03-11T18:06:29.921Z,6.72
2019-03-11T18:08:59.865Z,6.66
2019-03-11T18:11:29.711Z,6.51
2019-03-11T18:13:59.414Z,6.51
2019-03-11T18:16:29.206Z,6.50
2019-03-11T18:18:59.004Z,6.48
2019-03-11T18:21:29.029Z,6.41
2019-03-11T18:23:59.232Z,6.27
2019-03-11T18:26:29.170Z,6.23
2019-03-11T18:28:59.021Z,6.15
2019-03-11T18:31:29.115Z,6.21
2019-03-11T18:33:58.935Z,6.30
2019-03-11T18:36:29.086Z,6.28
2019-03-11T18:38:59.329Z,6.24
2019-03-11T18:41:29.311Z,6.09
2019-03-11T18:43:59.192Z,6.06
2019-03-11T18:46:29.024Z,6.07
2019-03-11T18:48:58.960Z,5.88
2019-03-11T18:51:28.766Z,5.83
2019-03-11T18:53:58.692Z,5.90
2019-03-11T18:56:28.500Z,5.89
2019-03-11T18:58:59.330Z,5.92
2019-03-11T19:01:29.104Z,5.78
2019-03-11T19:03:59.076Z,5.71
2019-03-11T19:06:28.980Z,5.69
2019-03-11T19:08:59.830Z,5.74
2019-03-11T19:11:30.144Z,5.58
2019-03-11T19:14:00.207Z,5.56
2019-03-11T19:16:30.093Z,5.53
2019-03-11T19:18:59.954Z,5.52
2019-03-11T19:21:29.731Z,5.64
2019-03-11T19:23:59.606Z,5.75
2019-03-11T19:26:30.961Z,5.60
2019-03-11T19:29:00.837Z,5.63
2019-03-11T19:31:30.698Z,5.67
2019-03-11T19:34:00.569Z,5.72
2019-03-11T19:36:30.378Z,5.58
2019-03-11T19:39:00.211Z,5.55
2019-03-11T19:41:30.266Z,5.60
2019-03-11T19:44:00.068Z,5.61
2019-03-11T19:46:29.937Z,5.68
2019-03-11T19:48:59.953Z,5.69
2019-03-11T19:51:29.686Z,5.65
2019-03-11T19:53:59.572Z,5.67
2019-03-11T19:56:29.832Z,5.64
2019-03-11T19:58:59.883Z,5.58
2019-03-11T20:01:30.157Z,5.55
2019-03-11T20:03:59.837Z,5.57
2019-03-11T20:06:29.833Z,5.48
2019-03-11T20:08:59.751Z,5.46
2019-03-11T20:11:29.572Z,5.34
2019-03-11T20:13:59.420Z,5.40
2019-03-11T20:16:29.933Z,5.51
2019-03-11T20:18:59.878Z,5.49
2019-03-11T20:21:29.814Z,5.63
2019-03-11T20:23:59.615Z,5.66
2019-03-11T20:26:31.043Z,5.60
2019-03-11T20:29:00.908Z,5.55
2019-03-11T20:31:30.757Z,5.63
2019-03-11T20:34:00.843Z,5.78
2019-03-11T20:36:30.675Z,5.49
2019-03-11T20:39:01.283Z,5.53
2019-03-11T20:41:32.500Z,5.64
2019-03-11T20:44:04.881Z,5.57
2019-03-11T20:46:34.470Z,5.57
2019-03-11T20:49:05.488Z,5.56
2019-03-11T20:51:35.621Z,5.64
2019-03-11T20:54:06.884Z,5.68
2019-03-11T20:56:36.828Z,5.66
2019-03-11T20:59:07.050Z,5.58
2019-03-11T21:01:37.983Z,5.58
2019-03-11T21:04:07.889Z,5.31
2019-03-11T21:06:38.191Z,5.21
2019-03-11T21:09:08.730Z,5.26
2019-03-11T21:11:39.200Z,5.32
2019-03-11T21:14:09.288Z,5.39
2019-03-11T21:16:39.497Z,5.33
2019-03-11T21:19:09.527Z,5.30
2019-03-11T21:21:40.057Z,5.28
2019-03-11T21:24:09.970Z,5.17
2019-03-11T21:26:39.923Z,5.05
2019-03-11T21:29:10.061Z,4.79
2019-03-11T21:31:39.952Z,4.84
2019-03-11T21:34:11.497Z,4.94
2019-03-11T21:36:41.475Z,5.04
2019-03-11T21:39:11.572Z,5.13
2019-03-11T21:41:41.463Z,5.22
2019-03-11T21:44:11.293Z,5.16
2019-03-11T21:46:41.107Z,5.14
2019-03-11T21:49:10.999Z,5.12
2019-03-11T21:51:41.551Z,5.13
2019-03-11T21:54:11.404Z,5.25
2019-03-11T21:56:43.256Z,5.24
2019-03-11T21:59:13.395Z,5.15
2019-03-11T22:01:45.361Z,5.13
2019-03-11T22:04:15.158Z,5.10
2019-03-11T22:06:44.936Z,5.15
2019-03-11T22:09:14.815Z,5.14
2019-03-11T22:11:44.709Z,5.15
2019-03-11T22:14:14.539Z,5.18
2019-03-11T22:16:44.526Z,5.13
2019-03-11T22:19:14.378Z,5.00
2019-03-11T22:21:44.451Z,4.95
2019-03-11T22:24:14.289Z,4.59
2019-03-11T22:26:44.898Z,4.58
2019-03-11T22:29:15.576Z,4.63
2019-03-11T22:31:45.427Z,4.56
2019-03-11T22:34:15.165Z,4.67
2019-03-11T22:36:44.926Z,4.72
2019-03-11T22:39:14.757Z,4.80
2019-03-11T22:41:44.519Z,4.87
2019-03-11T22:44:14.291Z,4.83
2019-03-11T22:46:44.091Z,4.86
2019-03-11T22:49:13.923Z,4.73
2019-03-11T22:51:44.007Z,4.69
2019-03-11T22:54:13.857Z,4.75
2019-03-11T22:56:43.672Z,4.77
2019-03-11T22:59:15.033Z,4.88
2019-03-11T23:01:44.951Z,4.96
2019-03-11T23:04:15.723Z,4.85
2019-03-11T23:06:47.848Z,4.69
2019-03-11T23:09:17.681Z,4.72
2019-03-11T23:11:47.428Z,4.70
2019-03-11T23:14:17.247Z,4.77
2019-03-11T23:16:47.169Z,4.72
2019-03-11T23:19:17.011Z,4.77
2019-03-11T23:21:46.772Z,4.72
2019-03-11T23:24:17.377Z,4.78
2019-03-11T23:26:47.217Z,4.58
2019-03-11T23:29:17.018Z,4.55
2019-03-11T23:31:47.612Z,4.58
2019-03-11T23:34:17.392Z,4.53
2019-03-11T23:36:47.736Z,4.45
2019-03-11T23:39:17.732Z,4.33
2019-03-11T23:41:47.472Z,4.27
2019-03-11T23:44:18.866Z,4.14
2019-03-11T23:46:49.047Z,4.00
2019-03-11T23:49:19.815Z,3.89
2019-03-11T23:51:49.414Z,3.76
2019-03-11T23:54:19.203Z,3.56
2019-03-11T23:56:48.863Z,3.53
2019-03-11T23:59:18.641Z,3.50
